sensor_id;sensor_type;location;lat;lon;timestamp;temperature;humidity
2477;DHT22;1249;51.270;6.756;2023-07-02T00:01:44;22.60;99.90
2477;DHT22;1249;51.270;6.756;2023-07-02T00:04:10;22.60;99.90
2477;DHT22;1249;51.270;6.756;2023-07-02T00:06:39;22.60;99.90
2477;DHT22;1249;51.270;6.756;2023-07-02T00:09:06;22.60;99.90
2477;DHT22;1249;51.270;6.756;2023-07-02T00:11:32;22.60;99.90
2477;DHT22;1249;51.270;6.756;2023-07-02T00:13:57;22.60;99.90
2477;DHT22;1249;51.270;6.756;2023-07-02T00:16:23;22.60;99.90
2477;DHT22;1249;51.270;6.756;2023-07-02T00:18:48;22.50;99.90
2477;DHT22;1249;51.270;6.756;2023-07-02T00:21:21;22.60;99.90
2477;DHT22;1249;51.270;6.756;2023-07-02T00:23:47;22.50;99.90
2477;DHT22;1249;51.270;6.756;2023-07-02T00:26:13;22.50;99.90
2477;DHT22;1249;51.270;6.756;2023-07-02T00:28:38;22.50;99.90
2477;DHT22;1249;51.270;6.756;2023-07-02T00:31:04;22.50;99.90
2477;DHT22;1249;51.270;6.756;2023-07-02T00:33:31;22.50;99.90
2477;DHT22;1249;51.270;6.756;2023-07-02T00:35:57;22.50;99.90
2477;DHT22;1249;51.270;6.756;2023-07-02T00:38:23;22.50;99.90
2477;DHT22;1249;51.270;6.756;2023-07-02T00:40:48;22.50;99.90
2477;DHT22;1249;51.270;6.756;2023-07-02T00:43:14;22.50;99.90
2477;DHT22;1249;51.270;6.756;2023-07-02T00:45:39;22.50;99.90
2477;DHT22;1249;51.270;6.756;2023-07-02T00:48:08;22.50;99.90
2477;DHT22;1249;51.270;6.756;2023-07-02T00:50:34;22.50;99.90
2477;DHT22;1249;51.270;6.756;2023-07-02T00:52:59;22.50;99.90
2477;DHT22;1249;51.270;6.756;2023-07-02T00:55:25;22.50;99.90
2477;DHT22;1249;51.270;6.756;2023-07-02T00:57:51;22.40;99.90
2477;DHT22;1249;51.270;6.756;2023-07-02T01:00:16;22.40;99.90
2477;DHT22;1249;51.270;6.756;2023-07-02T01:02:42;22.40;99.90
2477;DHT22;1249;51.270;6.756;2023-07-02T01:05:13;22.40;99.90
2477;DHT22;1249;51.270;6.756;2023-07-02T01:07:39;22.40;99.90
2477;DHT22;1249;51.270;6.756;2023-07-02T01:10:05;22.30;99.90
2477;DHT22;1249;51.270;6.756;2023-07-02T01:12:30;22.30;99.90
2477;DHT22;1249;51.270;6.756;2023-07-02T01:14:59;22.30;99.90
2477;DHT22;1249;51.270;6.756;2023-07-02T01:17:27;22.30;99.90
2477;DHT22;1249;51.270;6.756;2023-07-02T01:19:57;22.30;99.90
2477;DHT22;1249;51.270;6.756;2023-07-02T01:22:27;22.30;99.90
2477;DHT22;1249;51.270;6.756;2023-07-02T01:24:54;22.30;99.90
2477;DHT22;1249;51.270;6.756;2023-07-02T01:27:20;22.30;99.90
2477;DHT22;1249;51.270;6.756;2023-07-02T01:29:47;22.30;99.90
2477;DHT22;1249;51.270;6.756;2023-07-02T01:32:15;22.20;99.90
2477;DHT22;1249;51.270;6.756;2023-07-02T01:34:41;22.20;99.90
2477;DHT22;1249;51.270;6.756;2023-07-02T01:37:09;22.20;99.90
2477;DHT22;1249;51.270;6.756;2023-07-02T01:39:35;22.20;99.90
2477;DHT22;1249;51.270;6.756;2023-07-02T01:42:08;22.20;99.90
2477;DHT22;1249;51.270;6.756;2023-07-02T01:44:35;22.20;99.90
2477;DHT22;1249;51.270;6.756;2023-07-02T01:47:01;22.10;99.90
2477;DHT22;1249;51.270;6.756;2023-07-02T01:49:26;22.10;99.90
2477;DHT22;1249;51.270;6.756;2023-07-02T01:51:52;22.10;99.90
2477;DHT22;1249;51.270;6.756;2023-07-02T01:54:19;22.10;99.90
2477;DHT22;1249;51.270;6.756;2023-07-02T01:56:45;22.10;99.90
2477;DHT22;1249;51.270;6.756;2023-07-02T01:59:12;22.10;99.90
2477;DHT22;1249;51.270;6.756;2023-07-02T02:01:38;22.00;99.90
2477;DHT22;1249;51.270;6.756;2023-07-02T02:04:07;22.00;99.90
2477;DHT22;1249;51.270;6.756;2023-07-02T02:06:33;22.00;99.90
2477;DHT22;1249;51.270;6.756;2023-07-02T02:08:59;22.00;99.90
2477;DHT22;1249;51.270;6.756;2023-07-02T02:11:25;22.00;99.90
2477;DHT22;1249;51.270;6.756;2023-07-02T02:13:51;22.00;99.90
2477;DHT22;1249;51.270;6.756;2023-07-02T02:16:16;22.00;99.90
2477;DHT22;1249;51.270;6.756;2023-07-02T02:18:42;22.00;99.90
2477;DHT22;1249;51.270;6.756;2023-07-02T02:21:07;22.00;99.90
2477;DHT22;1249;51.270;6.756;2023-07-02T02:23:33;22.00;99.90
2477;DHT22;1249;51.270;6.756;2023-07-02T02:25:59;22.00;99.90
2477;DHT22;1249;51.270;6.756;2023-07-02T02:28:24;22.00;99.90
2477;DHT22;1249;51.270;6.756;2023-07-02T02:30:50;21.90;99.90
2477;DHT22;1249;51.270;6.756;2023-07-02T02:33:15;21.90;99.90
2477;DHT22;1249;51.270;6.756;2023-07-02T02:35:41;22.00;99.90
2477;DHT22;1249;51.270;6.756;2023-07-02T02:38:06;21.90;99.90
2477;DHT22;1249;51.270;6.756;2023-07-02T02:40:32;21.90;99.90
2477;DHT22;1249;51.270;6.756;2023-07-02T02:42:58;21.90;99.90
2477;DHT22;1249;51.270;6.756;2023-07-02T02:45:23;21.90;99.90
2477;DHT22;1249;51.270;6.756;2023-07-02T02:47:49;21.90;99.90
2477;DHT22;1249;51.270;6.756;2023-07-02T02:50:14;21.90;99.90
2477;DHT22;1249;51.270;6.756;2023-07-02T02:52:40;21.90;99.90
2477;DHT22;1249;51.270;6.756;2023-07-02T02:55:07;21.90;99.90
2477;DHT22;1249;51.270;6.756;2023-07-02T02:57:33;21.90;99.90
2477;DHT22;1249;51.270;6.756;2023-07-02T02:59:59;21.90;99.90
2477;DHT22;1249;51.270;6.756;2023-07-02T03:02:24;21.90;99.90
2477;DHT22;1249;51.270;6.756;2023-07-02T03:04:50;21.90;99.90
2477;DHT22;1249;51.270;6.756;2023-07-02T03:07:16;21.90;99.90
2477;DHT22;1249;51.270;6.756;2023-07-02T03:09:42;21.90;99.90
2477;DHT22;1249;51.270;6.756;2023-07-02T03:12:07;21.90;99.90
2477;DHT22;1249;51.270;6.756;2023-07-02T03:14:33;21.90;99.90
2477;DHT22;1249;51.270;6.756;2023-07-02T03:16:59;21.90;99.90
2477;DHT22;1249;51.270;6.756;2023-07-02T03:19:24;21.90;99.90
2477;DHT22;1249;51.270;6.756;2023-07-02T03:21:50;21.90;99.90
2477;DHT22;1249;51.270;6.756;2023-07-02T03:24:16;21.90;99.90
2477;DHT22;1249;51.270;6.756;2023-07-02T03:26:44;21.90;99.90
2477;DHT22;1249;51.270;6.756;2023-07-02T03:29:10;21.90;99.90
2477;DHT22;1249;51.270;6.756;2023-07-02T03:31:36;21.90;99.90
2477;DHT22;1249;51.270;6.756;2023-07-02T03:34:05;21.90;99.90
2477;DHT22;1249;51.270;6.756;2023-07-02T03:36:31;21.90;99.90
2477;DHT22;1249;51.270;6.756;2023-07-02T03:38:57;22.00;99.90
2477;DHT22;1249;51.270;6.756;2023-07-02T03:41:22;21.90;99.90
2477;DHT22;1249;51.270;6.756;2023-07-02T03:43:48;21.90;99.90
2477;DHT22;1249;51.270;6.756;2023-07-02T03:46:14;21.90;99.90
2477;DHT22;1249;51.270;6.756;2023-07-02T03:48:39;21.90;99.90
2477;DHT22;1249;51.270;6.756;2023-07-02T03:51:05;21.90;99.90
2477;DHT22;1249;51.270;6.756;2023-07-02T03:53:31;21.90;99.90
2477;DHT22;1249;51.270;6.756;2023-07-02T03:55:57;21.90;99.90
2477;DHT22;1249;51.270;6.756;2023-07-02T03:58:22;21.90;99.90
2477;DHT22;1249;51.270;6.756;2023-07-02T04:00:48;21.90;99.90
2477;DHT22;1249;51.270;6.756;2023-07-02T04:03:17;21.90;99.90
2477;DHT22;1249;51.270;6.756;2023-07-02T04:05:43;21.90;99.90
2477;DHT22;1249;51.270;6.756;2023-07-02T04:08:09;21.90;99.90
2477;DHT22;1249;51.270;6.756;2023-07-02T04:10:35;21.90;99.90
2477;DHT22;1249;51.270;6.756;2023-07-02T04:13:01;21.90;99.90
2477;DHT22;1249;51.270;6.756;2023-07-02T04:15:26;21.90;99.90
2477;DHT22;1249;51.270;6.756;2023-07-02T04:17:52;21.90;99.90
2477;DHT22;1249;51.270;6.756;2023-07-02T04:20:19;21.90;99.90
2477;DHT22;1249;51.270;6.756;2023-07-02T04:22:45;21.90;99.90
2477;DHT22;1249;51.270;6.756;2023-07-02T04:25:12;21.90;99.90
2477;DHT22;1249;51.270;6.756;2023-07-02T04:27:41;21.90;99.90
2477;DHT22;1249;51.270;6.756;2023-07-02T04:30:07;21.90;99.90
2477;DHT22;1249;51.270;6.756;2023-07-02T04:32:34;21.90;99.90
2477;DHT22;1249;51.270;6.756;2023-07-02T04:34:59;21.90;99.90
2477;DHT22;1249;51.270;6.756;2023-07-02T04:37:25;21.90;99.90
2477;DHT22;1249;51.270;6.756;2023-07-02T04:39:50;21.90;99.90
2477;DHT22;1249;51.270;6.756;2023-07-02T04:42:16;21.90;99.90
2477;DHT22;1249;51.270;6.756;2023-07-02T04:44:41;22.00;99.90
2477;DHT22;1249;51.270;6.756;2023-07-02T04:47:09;21.90;99.90
2477;DHT22;1249;51.270;6.756;2023-07-02T04:49:34;21.90;99.90
2477;DHT22;1249;51.270;6.756;2023-07-02T04:52:00;22.00;99.90
2477;DHT22;1249;51.270;6.756;2023-07-02T04:54:25;22.00;99.90
2477;DHT22;1249;51.270;6.756;2023-07-02T04:56:51;22.00;99.90
2477;DHT22;1249;51.270;6.756;2023-07-02T04:59:16;22.00;99.90
2477;DHT22;1249;51.270;6.756;2023-07-02T05:01:42;22.00;99.90
2477;DHT22;1249;51.270;6.756;2023-07-02T05:04:10;22.00;99.90
2477;DHT22;1249;51.270;6.756;2023-07-02T05:06:38;22.00;99.90
2477;DHT22;1249;51.270;6.756;2023-07-02T05:09:04;22.10;99.90
2477;DHT22;1249;51.270;6.756;2023-07-02T05:11:30;22.10;99.90
2477;DHT22;1249;51.270;6.756;2023-07-02T05:13:55;22.10;99.90
2477;DHT22;1249;51.270;6.756;2023-07-02T05:16:21;22.10;99.90
2477;DHT22;1249;51.270;6.756;2023-07-02T05:18:47;22.10;99.90
2477;DHT22;1249;51.270;6.756;2023-07-02T05:21:17;22.10;99.90
2477;DHT22;1249;51.270;6.756;2023-07-02T05:23:42;22.10;99.90
2477;DHT22;1249;51.270;6.756;2023-07-02T05:26:08;22.10;99.90
2477;DHT22;1249;51.270;6.756;2023-07-02T05:28:33;22.20;99.90
2477;DHT22;1249;51.270;6.756;2023-07-02T05:30:59;22.20;99.90
2477;DHT22;1249;51.270;6.756;2023-07-02T05:33:24;22.20;99.90
2477;DHT22;1249;51.270;6.756;2023-07-02T05:35:50;22.20;99.90
2477;DHT22;1249;51.270;6.756;2023-07-02T05:38:18;22.20;99.90
2477;DHT22;1249;51.270;6.756;2023-07-02T05:40:44;22.20;99.90
2477;DHT22;1249;51.270;6.756;2023-07-02T05:43:09;22.20;99.90
2477;DHT22;1249;51.270;6.756;2023-07-02T05:45:35;22.30;99.90
2477;DHT22;1249;51.270;6.756;2023-07-02T05:48:00;22.20;99.90
2477;DHT22;1249;51.270;6.756;2023-07-02T05:50:26;22.20;99.90
2477;DHT22;1249;51.270;6.756;2023-07-02T05:52:52;22.20;99.90
2477;DHT22;1249;51.270;6.756;2023-07-02T05:55:17;22.30;99.90
2477;DHT22;1249;51.270;6.756;2023-07-02T05:57:43;22.10;99.90
2477;DHT22;1249;51.270;6.756;2023-07-02T06:00:09;21.90;99.50
2477;DHT22;1249;51.270;6.756;2023-07-02T06:02:34;21.80;98.90
2477;DHT22;1249;51.270;6.756;2023-07-02T06:05:00;21.80;98.90
2477;DHT22;1249;51.270;6.756;2023-07-02T06:07:27;21.70;98.10
2477;DHT22;1249;51.270;6.756;2023-07-02T06:09:53;21.80;99.20
2477;DHT22;1249;51.270;6.756;2023-07-02T06:12:20;21.80;98.10
2477;DHT22;1249;51.270;6.756;2023-07-02T06:14:46;21.90;98.40
2477;DHT22;1249;51.270;6.756;2023-07-02T06:17:11;22.00;97.90
2477;DHT22;1249;51.270;6.756;2023-07-02T06:19:37;22.20;97.70
2477;DHT22;1249;51.270;6.756;2023-07-02T06:22:03;22.40;97.50
2477;DHT22;1249;51.270;6.756;2023-07-02T06:24:29;22.50;97.10
2477;DHT22;1249;51.270;6.756;2023-07-02T06:26:55;22.60;97.70
2477;DHT22;1249;51.270;6.756;2023-07-02T06:29:23;22.70;96.50
2477;DHT22;1249;51.270;6.756;2023-07-02T06:31:49;22.70;95.30
2477;DHT22;1249;51.270;6.756;2023-07-02T06:34:15;22.80;95.10
2477;DHT22;1249;51.270;6.756;2023-07-02T06:36:41;23.00;94.60
2477;DHT22;1249;51.270;6.756;2023-07-02T06:39:06;23.30;93.40
2477;DHT22;1249;51.270;6.756;2023-07-02T06:41:33;23.40;92.90
2477;DHT22;1249;51.270;6.756;2023-07-02T06:43:58;23.40;92.50
2477;DHT22;1249;51.270;6.756;2023-07-02T06:46:24;23.50;92.70
2477;DHT22;1249;51.270;6.756;2023-07-02T06:48:49;24.00;92.30
2477;DHT22;1249;51.270;6.756;2023-07-02T06:51:15;24.20;90.80
2477;DHT22;1249;51.270;6.756;2023-07-02T06:53:41;24.30;90.40
2477;DHT22;1249;51.270;6.756;2023-07-02T06:56:10;24.30;90.80
2477;DHT22;1249;51.270;6.756;2023-07-02T06:58:36;24.20;90.30
2477;DHT22;1249;51.270;6.756;2023-07-02T07:01:02;24.40;90.00
2477;DHT22;1249;51.270;6.756;2023-07-02T07:03:28;24.50;87.40
2477;DHT22;1249;51.270;6.756;2023-07-02T07:05:53;24.80;86.90
2477;DHT22;1249;51.270;6.756;2023-07-02T07:08:19;24.90;84.90
2477;DHT22;1249;51.270;6.756;2023-07-02T07:10:45;25.10;84.60
2477;DHT22;1249;51.270;6.756;2023-07-02T07:13:11;25.20;86.00
2477;DHT22;1249;51.270;6.756;2023-07-02T07:15:37;25.40;84.70
2477;DHT22;1249;51.270;6.756;2023-07-02T07:18:03;25.60;83.60
2477;DHT22;1249;51.270;6.756;2023-07-02T07:20:30;25.90;82.60
2477;DHT22;1249;51.270;6.756;2023-07-02T07:22:56;26.50;82.10
2477;DHT22;1249;51.270;6.756;2023-07-02T07:25:21;27.10;79.10
2477;DHT22;1249;51.270;6.756;2023-07-02T07:27:47;27.40;77.40
2477;DHT22;1249;51.270;6.756;2023-07-02T07:30:12;27.30;75.00
2477;DHT22;1249;51.270;6.756;2023-07-02T07:32:40;27.20;75.50
2477;DHT22;1249;51.270;6.756;2023-07-02T07:35:06;27.10;75.10
2477;DHT22;1249;51.270;6.756;2023-07-02T07:37:31;27.20;75.60
2477;DHT22;1249;51.270;6.756;2023-07-02T07:39:57;27.50;75.20
2477;DHT22;1249;51.270;6.756;2023-07-02T07:42:23;27.80;74.40
2477;DHT22;1249;51.270;6.756;2023-07-02T07:44:48;28.30;72.30
2477;DHT22;1249;51.270;6.756;2023-07-02T07:47:14;28.30;69.20
2477;DHT22;1249;51.270;6.756;2023-07-02T07:49:39;28.10;69.00
2477;DHT22;1249;51.270;6.756;2023-07-02T07:52:05;27.80;68.40
2477;DHT22;1249;51.270;6.756;2023-07-02T07:54:32;27.30;67.90
2477;DHT22;1249;51.270;6.756;2023-07-02T07:56:58;26.80;68.90
2477;DHT22;1249;51.270;6.756;2023-07-02T07:59:23;26.40;70.00
2477;DHT22;1249;51.270;6.756;2023-07-02T08:01:49;26.10;71.10
2477;DHT22;1249;51.270;6.756;2023-07-02T08:04:15;25.70;72.90
2477;DHT22;1249;51.270;6.756;2023-07-02T08:06:40;25.30;74.50
2477;DHT22;1249;51.270;6.756;2023-07-02T08:09:06;25.10;74.20
2477;DHT22;1249;51.270;6.756;2023-07-02T08:11:31;25.10;75.10
2477;DHT22;1249;51.270;6.756;2023-07-02T08:13:57;25.00;74.90
2477;DHT22;1249;51.270;6.756;2023-07-02T08:16:23;25.00;74.20
2477;DHT22;1249;51.270;6.756;2023-07-02T08:18:48;25.10;74.20
2477;DHT22;1249;51.270;6.756;2023-07-02T08:21:14;25.70;74.80
2477;DHT22;1249;51.270;6.756;2023-07-02T08:23:41;26.10;72.40
2477;DHT22;1249;51.270;6.756;2023-07-02T08:26:07;26.10;70.90
2477;DHT22;1249;51.270;6.756;2023-07-02T08:28:32;26.10;70.60
2477;DHT22;1249;51.270;6.756;2023-07-02T08:30:58;26.10;69.60
2477;DHT22;1249;51.270;6.756;2023-07-02T08:33:24;25.70;68.90
2477;DHT22;1249;51.270;6.756;2023-07-02T08:35:50;25.50;70.20
2477;DHT22;1249;51.270;6.756;2023-07-02T08:38:15;25.40;71.20
2477;DHT22;1249;51.270;6.756;2023-07-02T08:40:41;25.40;72.00
2477;DHT22;1249;51.270;6.756;2023-07-02T08:43:06;25.30;71.80
2477;DHT22;1249;51.270;6.756;2023-07-02T08:45:32;25.20;71.90
2477;DHT22;1249;51.270;6.756;2023-07-02T08:47:58;25.00;72.60
2477;DHT22;1249;51.270;6.756;2023-07-02T08:50:24;25.00;72.60
2477;DHT22;1249;51.270;6.756;2023-07-02T08:52:50;24.80;73.00
2477;DHT22;1249;51.270;6.756;2023-07-02T08:55:17;24.70;73.40
2477;DHT22;1249;51.270;6.756;2023-07-02T08:57:49;24.80;73.50
2477;DHT22;1249;51.270;6.756;2023-07-02T09:00:15;24.90;73.00
2477;DHT22;1249;51.270;6.756;2023-07-02T09:02:41;25.20;72.70
2477;DHT22;1249;51.270;6.756;2023-07-02T09:05:06;25.40;72.40
2477;DHT22;1249;51.270;6.756;2023-07-02T09:07:43;25.50;71.30
2477;DHT22;1249;51.270;6.756;2023-07-02T09:10:10;25.50;70.30
2477;DHT22;1249;51.270;6.756;2023-07-02T09:12:35;25.40;70.10
2477;DHT22;1249;51.270;6.756;2023-07-02T09:15:03;25.50;70.50
2477;DHT22;1249;51.270;6.756;2023-07-02T09:17:35;25.40;69.60
2477;DHT22;1249;51.270;6.756;2023-07-02T09:20:03;25.40;71.10
2477;DHT22;1249;51.270;6.756;2023-07-02T09:22:30;25.20;71.10
2477;DHT22;1249;51.270;6.756;2023-07-02T09:24:58;25.00;69.60
2477;DHT22;1249;51.270;6.756;2023-07-02T09:27:36;25.00;69.70
2477;DHT22;1249;51.270;6.756;2023-07-02T09:30:07;25.00;69.30
2477;DHT22;1249;51.270;6.756;2023-07-02T09:32:33;25.20;70.60
2477;DHT22;1249;51.270;6.756;2023-07-02T09:34:59;25.60;70.90
2477;DHT22;1249;51.270;6.756;2023-07-02T09:37:24;26.20;69.70
2477;DHT22;1249;51.270;6.756;2023-07-02T09:39:51;26.40;66.80
2477;DHT22;1249;51.270;6.756;2023-07-02T09:42:20;26.40;66.30
2477;DHT22;1249;51.270;6.756;2023-07-02T09:44:46;26.30;65.30
2477;DHT22;1249;51.270;6.756;2023-07-02T09:47:13;26.20;65.30
2477;DHT22;1249;51.270;6.756;2023-07-02T09:49:43;26.10;66.10
2477;DHT22;1249;51.270;6.756;2023-07-02T09:52:11;25.80;66.80
2477;DHT22;1249;51.270;6.756;2023-07-02T09:54:37;25.50;68.80
2477;DHT22;1249;51.270;6.756;2023-07-02T09:57:04;25.30;69.80
2477;DHT22;1249;51.270;6.756;2023-07-02T09:59:30;25.00;71.50
2477;DHT22;1249;51.270;6.756;2023-07-02T10:01:56;24.80;73.70
2477;DHT22;1249;51.270;6.756;2023-07-02T10:04:22;24.80;74.40
2477;DHT22;1249;51.270;6.756;2023-07-02T10:09:18;24.80;74.50
2477;DHT22;1249;51.270;6.756;2023-07-02T10:11:44;24.90;73.60
2477;DHT22;1249;51.270;6.756;2023-07-02T10:14:10;25.40;75.30
2477;DHT22;1249;51.270;6.756;2023-07-02T10:16:56;25.80;71.90
2477;DHT22;1249;51.270;6.756;2023-07-02T10:19:22;26.30;72.40
2477;DHT22;1249;51.270;6.756;2023-07-02T10:22:03;26.80;68.40
2477;DHT22;1249;51.270;6.756;2023-07-02T10:24:29;27.10;67.50
2477;DHT22;1249;51.270;6.756;2023-07-02T10:26:58;27.00;66.30
2477;DHT22;1249;51.270;6.756;2023-07-02T10:29:25;26.80;66.00
2477;DHT22;1249;51.270;6.756;2023-07-02T10:31:52;26.40;65.60
2477;DHT22;1249;51.270;6.756;2023-07-02T10:34:31;26.20;66.40
2477;DHT22;1249;51.270;6.756;2023-07-02T10:36:57;25.90;67.30
2477;DHT22;1249;51.270;6.756;2023-07-02T10:39:23;25.70;68.60
2477;DHT22;1249;51.270;6.756;2023-07-02T10:41:49;25.50;68.60
2477;DHT22;1249;51.270;6.756;2023-07-02T10:44:14;25.30;67.50
2477;DHT22;1249;51.270;6.756;2023-07-02T10:46:47;25.00;69.30
2477;DHT22;1249;51.270;6.756;2023-07-02T10:49:14;24.90;69.10
2477;DHT22;1249;51.270;6.756;2023-07-02T10:51:40;24.90;69.40
2477;DHT22;1249;51.270;6.756;2023-07-02T10:54:06;24.90;69.00
2477;DHT22;1249;51.270;6.756;2023-07-02T10:56:32;25.30;69.80
2477;DHT22;1249;51.270;6.756;2023-07-02T10:58:58;25.70;68.30
2477;DHT22;1249;51.270;6.756;2023-07-02T11:01:25;26.40;67.70
2477;DHT22;1249;51.270;6.756;2023-07-02T11:04:03;27.10;64.90
2477;DHT22;1249;51.270;6.756;2023-07-02T11:06:31;28.10;65.80
2477;DHT22;1249;51.270;6.756;2023-07-02T11:08:59;29.40;60.60
2477;DHT22;1249;51.270;6.756;2023-07-02T11:11:25;30.50;59.20
2477;DHT22;1249;51.270;6.756;2023-07-02T11:13:51;31.40;57.70
2477;DHT22;1249;51.270;6.756;2023-07-02T11:16:27;32.40;55.80
2477;DHT22;1249;51.270;6.756;2023-07-02T11:19:14;32.90;52.70
2477;DHT22;1249;51.270;6.756;2023-07-02T11:21:51;32.50;51.60
2477;DHT22;1249;51.270;6.756;2023-07-02T11:24:30;32.00;52.10
2477;DHT22;1249;51.270;6.756;2023-07-02T11:26:56;32.00;53.90
2477;DHT22;1249;51.270;6.756;2023-07-02T11:29:22;32.10;52.30
2477;DHT22;1249;51.270;6.756;2023-07-02T11:31:47;31.70;51.40
2477;DHT22;1249;51.270;6.756;2023-07-02T11:34:14;32.30;53.00
2477;DHT22;1249;51.270;6.756;2023-07-02T11:36:39;33.20;51.40
2477;DHT22;1249;51.270;6.756;2023-07-02T11:39:05;33.90;50.20
2477;DHT22;1249;51.270;6.756;2023-07-02T11:41:42;34.00;48.30
2477;DHT22;1249;51.270;6.756;2023-07-02T11:44:09;33.60;48.70
2477;DHT22;1249;51.270;6.756;2023-07-02T11:46:34;33.30;49.40
2477;DHT22;1249;51.270;6.756;2023-07-02T11:49:00;33.20;49.80
2477;DHT22;1249;51.270;6.756;2023-07-02T11:51:26;32.90;48.30
2477;DHT22;1249;51.270;6.756;2023-07-02T11:53:52;32.50;49.70
2477;DHT22;1249;51.270;6.756;2023-07-02T11:56:17;31.90;48.70
2477;DHT22;1249;51.270;6.756;2023-07-02T11:58:43;31.50;49.60
2477;DHT22;1249;51.270;6.756;2023-07-02T12:01:08;31.10;50.20
2477;DHT22;1249;51.270;6.756;2023-07-02T12:03:34;30.80;49.60
2477;DHT22;1249;51.270;6.756;2023-07-02T12:05:59;30.70;50.50
2477;DHT22;1249;51.270;6.756;2023-07-02T12:08:25;30.80;51.80
2477;DHT22;1249;51.270;6.756;2023-07-02T12:10:51;31.30;51.30
2477;DHT22;1249;51.270;6.756;2023-07-02T12:13:16;31.90;50.10
2477;DHT22;1249;51.270;6.756;2023-07-02T12:15:43;33.00;50.00
2477;DHT22;1249;51.270;6.756;2023-07-02T12:18:09;34.10;47.60
2477;DHT22;1249;51.270;6.756;2023-07-02T12:20:35;35.10;45.90
2477;DHT22;1249;51.270;6.756;2023-07-02T12:23:01;35.80;45.30
2477;DHT22;1249;51.270;6.756;2023-07-02T12:25:26;36.50;44.80
2477;DHT22;1249;51.270;6.756;2023-07-02T12:27:52;37.20;43.40
2477;DHT22;1249;51.270;6.756;2023-07-02T12:30:18;37.80;42.90
2477;DHT22;1249;51.270;6.756;2023-07-02T12:32:45;38.40;42.20
2477;DHT22;1249;51.270;6.756;2023-07-02T12:35:11;38.70;41.10
2477;DHT22;1249;51.270;6.756;2023-07-02T12:37:49;39.10;40.70
2477;DHT22;1249;51.270;6.756;2023-07-02T12:40:15;39.60;40.90
2477;DHT22;1249;51.270;6.756;2023-07-02T12:42:42;39.50;39.50
2477;DHT22;1249;51.270;6.756;2023-07-02T12:45:09;39.10;40.00
2477;DHT22;1249;51.270;6.756;2023-07-02T12:47:34;39.10;39.20
2477;DHT22;1249;51.270;6.756;2023-07-02T12:50:00;39.40;39.70
2477;DHT22;1249;51.270;6.756;2023-07-02T12:52:26;39.50;39.00
2477;DHT22;1249;51.270;6.756;2023-07-02T12:54:51;39.20;40.20
2477;DHT22;1249;51.270;6.756;2023-07-02T12:57:17;39.00;39.10
2477;DHT22;1249;51.270;6.756;2023-07-02T12:59:43;38.00;39.10
2477;DHT22;1249;51.270;6.756;2023-07-02T13:02:10;37.30;39.70
2477;DHT22;1249;51.270;6.756;2023-07-02T13:04:35;36.90;40.00
2477;DHT22;1249;51.270;6.756;2023-07-02T13:07:01;36.90;40.90
2477;DHT22;1249;51.270;6.756;2023-07-02T13:09:26;36.90;39.70
2477;DHT22;1249;51.270;6.756;2023-07-02T13:11:52;36.00;39.70
2477;DHT22;1249;51.270;6.756;2023-07-02T13:14:17;35.60;42.00
2477;DHT22;1249;51.270;6.756;2023-07-02T13:16:43;35.90;41.60
2477;DHT22;1249;51.270;6.756;2023-07-02T13:19:08;35.90;40.10
2477;DHT22;1249;51.270;6.756;2023-07-02T13:21:34;35.50;41.50
2477;DHT22;1249;51.270;6.756;2023-07-02T13:23:59;35.00;41.00
2477;DHT22;1249;51.270;6.756;2023-07-02T13:26:25;35.20;43.10
2477;DHT22;1249;51.270;6.756;2023-07-02T13:28:50;35.80;42.90
2477;DHT22;1249;51.270;6.756;2023-07-02T13:31:16;36.60;41.80
2477;DHT22;1249;51.270;6.756;2023-07-02T13:33:42;36.20;40.80
2477;DHT22;1249;51.270;6.756;2023-07-02T13:36:08;35.40;41.40
2477;DHT22;1249;51.270;6.756;2023-07-02T13:38:33;35.60;43.70
2477;DHT22;1249;51.270;6.756;2023-07-02T13:40:59;36.20;41.60
2477;DHT22;1249;51.270;6.756;2023-07-02T13:43:26;36.00;40.20
2477;DHT22;1249;51.270;6.756;2023-07-02T13:45:52;35.40;40.90
2477;DHT22;1249;51.270;6.756;2023-07-02T13:48:17;34.70;42.00
2477;DHT22;1249;51.270;6.756;2023-07-02T13:50:43;34.20;43.10
2477;DHT22;1249;51.270;6.756;2023-07-02T13:53:08;33.90;45.30
2477;DHT22;1249;51.270;6.756;2023-07-02T13:55:34;34.30;43.80
2477;DHT22;1249;51.270;6.756;2023-07-02T13:58:00;34.10;43.30
2477;DHT22;1249;51.270;6.756;2023-07-02T14:00:26;34.60;44.50
2477;DHT22;1249;51.270;6.756;2023-07-02T14:02:52;35.40;43.70
2477;DHT22;1249;51.270;6.756;2023-07-02T14:05:18;36.20;42.80
2477;DHT22;1249;51.270;6.756;2023-07-02T14:07:44;36.80;41.70
2477;DHT22;1249;51.270;6.756;2023-07-02T14:10:10;36.70;41.60
2477;DHT22;1249;51.270;6.756;2023-07-02T14:12:38;36.70;41.60
2477;DHT22;1249;51.270;6.756;2023-07-02T14:15:03;36.40;41.30
2477;DHT22;1249;51.270;6.756;2023-07-02T14:17:29;36.80;42.40
2477;DHT22;1249;51.270;6.756;2023-07-02T14:19:55;37.20;41.10
2477;DHT22;1249;51.270;6.756;2023-07-02T14:22:20;37.80;41.20
2477;DHT22;1249;51.270;6.756;2023-07-02T14:24:46;38.20;40.60
2477;DHT22;1249;51.270;6.756;2023-07-02T14:27:11;38.20;39.80
2477;DHT22;1249;51.270;6.756;2023-07-02T14:29:37;37.30;39.80
2477;DHT22;1249;51.270;6.756;2023-07-02T14:32:03;36.40;41.00
2477;DHT22;1249;51.270;6.756;2023-07-02T14:34:28;35.90;42.40
2477;DHT22;1249;51.270;6.756;2023-07-02T14:36:55;36.30;42.30
2477;DHT22;1249;51.270;6.756;2023-07-02T14:39:20;36.60;41.40
2477;DHT22;1249;51.270;6.756;2023-07-02T14:41:46;37.10;41.50
2477;DHT22;1249;51.270;6.756;2023-07-02T14:44:11;37.50;41.10
2477;DHT22;1249;51.270;6.756;2023-07-02T14:46:38;37.80;40.40
2477;DHT22;1249;51.270;6.756;2023-07-02T14:49:04;37.30;39.90
2477;DHT22;1249;51.270;6.756;2023-07-02T14:51:29;37.00;40.80
2477;DHT22;1249;51.270;6.756;2023-07-02T14:53:55;36.50;41.10
2477;DHT22;1249;51.270;6.756;2023-07-02T14:56:21;36.10;42.20
2477;DHT22;1249;51.270;6.756;2023-07-02T14:58:47;36.40;42.70
2477;DHT22;1249;51.270;6.756;2023-07-02T15:01:14;36.30;41.40
2477;DHT22;1249;51.270;6.756;2023-07-02T15:03:39;36.10;41.90
2477;DHT22;1249;51.270;6.756;2023-07-02T15:06:11;35.70;42.10
2477;DHT22;1249;51.270;6.756;2023-07-02T15:08:37;35.90;42.50
2477;DHT22;1249;51.270;6.756;2023-07-02T15:11:03;36.40;41.90
2477;DHT22;1249;51.270;6.756;2023-07-02T15:13:28;36.70;41.40
2477;DHT22;1249;51.270;6.756;2023-07-02T15:15:54;36.50;40.50
2477;DHT22;1249;51.270;6.756;2023-07-02T15:18:19;35.80;41.00
2477;DHT22;1249;51.270;6.756;2023-07-02T15:20:46;35.60;42.50
2477;DHT22;1249;51.270;6.756;2023-07-02T15:23:12;35.20;42.40
2477;DHT22;1249;51.270;6.756;2023-07-02T15:25:38;35.30;43.20
2477;DHT22;1249;51.270;6.756;2023-07-02T15:28:04;35.60;42.70
2477;DHT22;1249;51.270;6.756;2023-07-02T15:30:30;35.90;42.30
2477;DHT22;1249;51.270;6.756;2023-07-02T15:32:56;35.80;41.30
2477;DHT22;1249;51.270;6.756;2023-07-02T15:35:22;35.40;41.50
2477;DHT22;1249;51.270;6.756;2023-07-02T15:37:48;34.90;42.30
2477;DHT22;1249;51.270;6.756;2023-07-02T15:40:13;35.10;43.10
2477;DHT22;1249;51.270;6.756;2023-07-02T15:42:39;35.40;42.10
2477;DHT22;1249;51.270;6.756;2023-07-02T15:45:06;35.10;41.50
2477;DHT22;1249;51.270;6.756;2023-07-02T15:47:33;34.50;41.70
2477;DHT22;1249;51.270;6.756;2023-07-02T15:49:58;34.60;43.50
2477;DHT22;1249;51.270;6.756;2023-07-02T15:52:24;34.80;43.00
2477;DHT22;1249;51.270;6.756;2023-07-02T15:54:49;34.70;42.40
2477;DHT22;1249;51.270;6.756;2023-07-02T15:57:15;34.90;42.60
2477;DHT22;1249;51.270;6.756;2023-07-02T15:59:40;35.10;42.90